sensor_id;sensor_type;location;lat;lon;timestamp;temperature;humidity
52889;DHT22;41413;52.770;6.892;2023-03-23T00:01:15;11.00;99.90
52889;DHT22;41413;52.770;6.892;2023-03-23T00:03:49;11.00;99.90
52889;DHT22;41413;52.770;6.892;2023-03-23T00:06:16;11.00;99.90
52889;DHT22;41413;52.770;6.892;2023-03-23T00:08:44;11.00;99.90
52889;DHT22;41413;52.770;6.892;2023-03-23T00:11:21;11.00;99.90
52889;DHT22;41413;52.770;6.892;2023-03-23T00:13:50;11.00;99.90
52889;DHT22;41413;52.770;6.892;2023-03-23T00:16:20;11.00;99.90
52889;DHT22;41413;52.770;6.892;2023-03-23T00:18:57;11.00;99.90
52889;DHT22;41413;52.770;6.892;2023-03-23T00:21:25;11.00;99.90
52889;DHT22;41413;52.770;6.892;2023-03-23T00:24:16;11.00;99.90
52889;DHT22;41413;52.770;6.892;2023-03-23T00:26:44;11.00;99.90
52889;DHT22;41413;52.770;6.892;2023-03-23T00:29:17;11.00;99.90
52889;DHT22;41413;52.770;6.892;2023-03-23T00:31:45;11.00;99.90
52889;DHT22;41413;52.770;6.892;2023-03-23T00:34:20;10.90;99.90
52889;DHT22;41413;52.770;6.892;2023-03-23T00:36:47;11.00;99.90
52889;DHT22;41413;52.770;6.892;2023-03-23T00:39:14;10.90;99.90
52889;DHT22;41413;52.770;6.892;2023-03-23T00:41:42;10.90;99.90
52889;DHT22;41413;52.770;6.892;2023-03-23T00:44:08;11.00;99.90
52889;DHT22;41413;52.770;6.892;2023-03-23T00:46:34;11.00;99.90
52889;DHT22;41413;52.770;6.892;2023-03-23T00:49:00;10.90;99.90
52889;DHT22;41413;52.770;6.892;2023-03-23T00:51:25;11.00;99.90
52889;DHT22;41413;52.770;6.892;2023-03-23T00:53:51;11.30;99.90
52889;DHT22;41413;52.770;6.892;2023-03-23T00:56:17;11.00;99.90
52889;DHT22;41413;52.770;6.892;2023-03-23T00:58:43;11.10;99.90
52889;DHT22;41413;52.770;6.892;2023-03-23T01:01:08;11.10;99.90
52889;DHT22;41413;52.770;6.892;2023-03-23T01:03:35;11.10;99.90
52889;DHT22;41413;52.770;6.892;2023-03-23T01:06:10;11.20;99.90
52889;DHT22;41413;52.770;6.892;2023-03-23T01:08:39;11.50;99.90
52889;DHT22;41413;52.770;6.892;2023-03-23T01:11:12;11.20;99.90
52889;DHT22;41413;52.770;6.892;2023-03-23T01:13:38;11.20;99.90
52889;DHT22;41413;52.770;6.892;2023-03-23T01:16:04;11.10;99.90
52889;DHT22;41413;52.770;6.892;2023-03-23T01:18:30;11.20;99.90
52889;DHT22;41413;52.770;6.892;2023-03-23T01:20:55;11.20;99.90
52889;DHT22;41413;52.770;6.892;2023-03-23T01:23:21;11.20;99.90
52889;DHT22;41413;52.770;6.892;2023-03-23T01:25:47;11.20;99.90
52889;DHT22;41413;52.770;6.892;2023-03-23T01:28:12;11.20;99.90
52889;DHT22;41413;52.770;6.892;2023-03-23T01:30:38;11.10;99.90
52889;DHT22;41413;52.770;6.892;2023-03-23T01:33:04;11.20;99.90
52889;DHT22;41413;52.770;6.892;2023-03-23T01:35:29;11.20;99.90
52889;DHT22;41413;52.770;6.892;2023-03-23T01:37:55;11.10;99.90
52889;DHT22;41413;52.770;6.892;2023-03-23T01:40:21;11.10;99.90
52889;DHT22;41413;52.770;6.892;2023-03-23T01:42:46;11.10;99.90
52889;DHT22;41413;52.770;6.892;2023-03-23T01:45:29;11.10;99.90
52889;DHT22;41413;52.770;6.892;2023-03-23T01:47:59;11.10;99.90
52889;DHT22;41413;52.770;6.892;2023-03-23T01:50:28;11.10;99.90
52889;DHT22;41413;52.770;6.892;2023-03-23T01:52:57;11.10;99.90
52889;DHT22;41413;52.770;6.892;2023-03-23T01:55:25;11.10;99.90
52889;DHT22;41413;52.770;6.892;2023-03-23T01:57:52;11.20;99.90
52889;DHT22;41413;52.770;6.892;2023-03-23T02:00:19;11.10;99.90
52889;DHT22;41413;52.770;6.892;2023-03-23T02:02:48;11.20;99.90
52889;DHT22;41413;52.770;6.892;2023-03-23T02:05:21;11.10;99.90
52889;DHT22;41413;52.770;6.892;2023-03-23T02:07:47;11.00;99.90
52889;DHT22;41413;52.770;6.892;2023-03-23T02:10:14;11.10;99.90
52889;DHT22;41413;52.770;6.892;2023-03-23T02:12:40;11.20;99.90
52889;DHT22;41413;52.770;6.892;2023-03-23T02:15:06;11.20;99.90
52889;DHT22;41413;52.770;6.892;2023-03-23T02:20:47;11.20;99.90
52889;DHT22;41413;52.770;6.892;2023-03-23T02:25:58;11.10;99.90
52889;DHT22;41413;52.770;6.892;2023-03-23T02:31:46;11.10;99.90
52889;DHT22;41413;52.770;6.892;2023-03-23T02:34:25;11.20;99.90
52889;DHT22;41413;52.770;6.892;2023-03-23T02:36:56;11.20;99.90
52889;DHT22;41413;52.770;6.892;2023-03-23T02:39:32;11.20;99.90
52889;DHT22;41413;52.770;6.892;2023-03-23T02:42:08;11.20;99.90
52889;DHT22;41413;52.770;6.892;2023-03-23T02:44:36;11.20;99.90
52889;DHT22;41413;52.770;6.892;2023-03-23T02:47:06;11.30;99.90
52889;DHT22;41413;52.770;6.892;2023-03-23T02:49:34;11.20;99.90
52889;DHT22;41413;52.770;6.892;2023-03-23T02:52:05;11.20;99.90
52889;DHT22;41413;52.770;6.892;2023-03-23T02:54:32;11.10;99.90
52889;DHT22;41413;52.770;6.892;2023-03-23T02:56:58;11.20;99.90
52889;DHT22;41413;52.770;6.892;2023-03-23T02:59:25;11.10;99.90
52889;DHT22;41413;52.770;6.892;2023-03-23T03:02:14;11.20;99.90
52889;DHT22;41413;52.770;6.892;2023-03-23T03:04:40;11.10;99.90
52889;DHT22;41413;52.770;6.892;2023-03-23T03:10:02;11.10;99.90
52889;DHT22;41413;52.770;6.892;2023-03-23T03:17:49;11.10;99.90
52889;DHT22;41413;52.770;6.892;2023-03-23T03:20:18;11.10;99.90
52889;DHT22;41413;52.770;6.892;2023-03-23T03:22:45;11.20;99.90
52889;DHT22;41413;52.770;6.892;2023-03-23T03:25:14;11.20;99.90
52889;DHT22;41413;52.770;6.892;2023-03-23T03:27:44;11.20;99.90
52889;DHT22;41413;52.770;6.892;2023-03-23T03:30:14;11.30;99.90
52889;DHT22;41413;52.770;6.892;2023-03-23T03:32:48;11.30;99.90
52889;DHT22;41413;52.770;6.892;2023-03-23T03:35:16;11.30;99.90
52889;DHT22;41413;52.770;6.892;2023-03-23T03:37:43;11.30;99.90
52889;DHT22;41413;52.770;6.892;2023-03-23T03:40:17;11.30;99.90
52889;DHT22;41413;52.770;6.892;2023-03-23T03:42:44;11.40;99.90
52889;DHT22;41413;52.770;6.892;2023-03-23T03:45:13;11.40;99.90
52889;DHT22;41413;52.770;6.892;2023-03-23T03:47:39;11.40;99.90
52889;DHT22;41413;52.770;6.892;2023-03-23T03:50:05;11.40;99.90
52889;DHT22;41413;52.770;6.892;2023-03-23T03:52:31;11.40;99.90
52889;DHT22;41413;52.770;6.892;2023-03-23T03:54:57;11.40;99.90
52889;DHT22;41413;52.770;6.892;2023-03-23T03:57:23;11.40;99.90
52889;DHT22;41413;52.770;6.892;2023-03-23T03:59:49;11.40;99.90
52889;DHT22;41413;52.770;6.892;2023-03-23T04:02:16;11.40;99.90
52889;DHT22;41413;52.770;6.892;2023-03-23T04:04:47;11.50;99.90
52889;DHT22;41413;52.770;6.892;2023-03-23T04:07:13;11.40;99.90
52889;DHT22;41413;52.770;6.892;2023-03-23T04:09:48;11.40;99.90
52889;DHT22;41413;52.770;6.892;2023-03-23T04:12:15;11.40;99.90
52889;DHT22;41413;52.770;6.892;2023-03-23T04:14:41;11.40;99.90
52889;DHT22;41413;52.770;6.892;2023-03-23T04:17:07;11.50;99.90
52889;DHT22;41413;52.770;6.892;2023-03-23T04:19:35;11.40;99.90
52889;DHT22;41413;52.770;6.892;2023-03-23T04:22:03;11.40;99.90
52889;DHT22;41413;52.770;6.892;2023-03-23T04:24:29;11.40;99.90
52889;DHT22;41413;52.770;6.892;2023-03-23T04:26:57;11.40;99.90
52889;DHT22;41413;52.770;6.892;2023-03-23T04:29:23;11.40;99.90
52889;DHT22;41413;52.770;6.892;2023-03-23T04:31:49;11.30;99.90
52889;DHT22;41413;52.770;6.892;2023-03-23T04:34:16;11.40;99.90
52889;DHT22;41413;52.770;6.892;2023-03-23T04:36:41;11.50;99.90
52889;DHT22;41413;52.770;6.892;2023-03-23T04:39:08;11.50;99.90
52889;DHT22;41413;52.770;6.892;2023-03-23T04:41:36;11.50;99.90
52889;DHT22;41413;52.770;6.892;2023-03-23T04:44:03;11.50;99.90
52889;DHT22;41413;52.770;6.892;2023-03-23T04:46:30;11.50;99.90
52889;DHT22;41413;52.770;6.892;2023-03-23T04:48:56;11.50;99.90
52889;DHT22;41413;52.770;6.892;2023-03-23T04:51:25;11.50;99.90
52889;DHT22;41413;52.770;6.892;2023-03-23T04:53:52;11.40;99.90
52889;DHT22;41413;52.770;6.892;2023-03-23T04:56:17;11.40;99.90
52889;DHT22;41413;52.770;6.892;2023-03-23T04:58:44;11.50;99.90
52889;DHT22;41413;52.770;6.892;2023-03-23T05:01:10;11.50;99.90
52889;DHT22;41413;52.770;6.892;2023-03-23T05:03:39;11.50;99.90
52889;DHT22;41413;52.770;6.892;2023-03-23T05:06:06;11.50;99.90
52889;DHT22;41413;52.770;6.892;2023-03-23T05:08:32;11.50;99.90
52889;DHT22;41413;52.770;6.892;2023-03-23T05:10:59;11.50;99.90
52889;DHT22;41413;52.770;6.892;2023-03-23T05:13:27;11.50;99.90
52889;DHT22;41413;52.770;6.892;2023-03-23T05:15:54;11.50;99.90
52889;DHT22;41413;52.770;6.892;2023-03-23T05:18:20;11.40;99.90
52889;DHT22;41413;52.770;6.892;2023-03-23T05:20:46;11.50;99.90
52889;DHT22;41413;52.770;6.892;2023-03-23T05:23:12;11.50;99.90
52889;DHT22;41413;52.770;6.892;2023-03-23T05:25:39;11.50;99.90
52889;DHT22;41413;52.770;6.892;2023-03-23T05:28:07;11.50;99.90
52889;DHT22;41413;52.770;6.892;2023-03-23T05:30:34;11.50;99.90
52889;DHT22;41413;52.770;6.892;2023-03-23T05:32:59;11.50;99.90
52889;DHT22;41413;52.770;6.892;2023-03-23T05:35:25;11.50;99.90
52889;DHT22;41413;52.770;6.892;2023-03-23T05:37:52;11.40;99.90
52889;DHT22;41413;52.770;6.892;2023-03-23T05:40:19;11.30;99.90
52889;DHT22;41413;52.770;6.892;2023-03-23T05:42:46;11.20;99.90
52889;DHT22;41413;52.770;6.892;2023-03-23T05:45:13;11.10;99.90
52889;DHT22;41413;52.770;6.892;2023-03-23T05:47:39;11.00;99.90
52889;DHT22;41413;52.770;6.892;2023-03-23T05:50:07;10.90;99.90
52889;DHT22;41413;52.770;6.892;2023-03-23T05:52:34;10.80;99.90
52889;DHT22;41413;52.770;6.892;2023-03-23T05:55:01;10.70;99.90
52889;DHT22;41413;52.770;6.892;2023-03-23T05:57:29;10.50;99.90
52889;DHT22;41413;52.770;6.892;2023-03-23T05:59:55;10.30;99.90
52889;DHT22;41413;52.770;6.892;2023-03-23T06:02:23;10.30;99.90
52889;DHT22;41413;52.770;6.892;2023-03-23T06:04:50;10.20;99.90
52889;DHT22;41413;52.770;6.892;2023-03-23T06:07:16;10.10;99.90
52889;DHT22;41413;52.770;6.892;2023-03-23T06:09:42;10.10;99.90
52889;DHT22;41413;52.770;6.892;2023-03-23T06:12:08;10.10;99.90
52889;DHT22;41413;52.770;6.892;2023-03-23T06:14:35;10.00;99.90
52889;DHT22;41413;52.770;6.892;2023-03-23T06:17:01;10.10;99.90
52889;DHT22;41413;52.770;6.892;2023-03-23T06:19:27;10.10;99.90
52889;DHT22;41413;52.770;6.892;2023-03-23T06:21:54;10.10;99.90
52889;DHT22;41413;52.770;6.892;2023-03-23T06:24:20;10.10;99.90
52889;DHT22;41413;52.770;6.892;2023-03-23T06:26:46;10.20;99.90
52889;DHT22;41413;52.770;6.892;2023-03-23T06:29:13;10.20;99.90
52889;DHT22;41413;52.770;6.892;2023-03-23T06:31:46;10.20;99.90
52889;DHT22;41413;52.770;6.892;2023-03-23T06:34:13;10.30;99.90
52889;DHT22;41413;52.770;6.892;2023-03-23T06:36:38;10.40;99.90
52889;DHT22;41413;52.770;6.892;2023-03-23T06:39:04;10.40;99.90
52889;DHT22;41413;52.770;6.892;2023-03-23T06:41:33;10.40;99.90
52889;DHT22;41413;52.770;6.892;2023-03-23T06:44:00;10.40;99.90
52889;DHT22;41413;52.770;6.892;2023-03-23T06:46:26;10.50;99.90
52889;DHT22;41413;52.770;6.892;2023-03-23T06:48:54;10.50;99.90
52889;DHT22;41413;52.770;6.892;2023-03-23T06:51:20;10.60;99.90
52889;DHT22;41413;52.770;6.892;2023-03-23T06:53:46;10.60;99.90
52889;DHT22;41413;52.770;6.892;2023-03-23T06:56:13;10.70;99.90
52889;DHT22;41413;52.770;6.892;2023-03-23T06:58:39;10.80;99.90
52889;DHT22;41413;52.770;6.892;2023-03-23T07:01:05;10.90;99.90
52889;DHT22;41413;52.770;6.892;2023-03-23T07:03:31;10.90;99.90
52889;DHT22;41413;52.770;6.892;2023-03-23T07:05:57;10.90;99.90
52889;DHT22;41413;52.770;6.892;2023-03-23T07:08:23;10.90;99.90
52889;DHT22;41413;52.770;6.892;2023-03-23T07:10:54;10.90;99.90
52889;DHT22;41413;52.770;6.892;2023-03-23T07:13:20;10.90;99.90
52889;DHT22;41413;52.770;6.892;2023-03-23T07:15:47;11.00;99.90
52889;DHT22;41413;52.770;6.892;2023-03-23T07:18:14;11.00;99.90
52889;DHT22;41413;52.770;6.892;2023-03-23T07:20:40;11.10;99.90
52889;DHT22;41413;52.770;6.892;2023-03-23T07:23:06;11.10;99.90
52889;DHT22;41413;52.770;6.892;2023-03-23T07:25:32;11.10;99.90
52889;DHT22;41413;52.770;6.892;2023-03-23T07:27:59;11.20;99.90
52889;DHT22;41413;52.770;6.892;2023-03-23T07:30:26;11.10;99.90
52889;DHT22;41413;52.770;6.892;2023-03-23T07:32:52;11.10;99.90
52889;DHT22;41413;52.770;6.892;2023-03-23T07:35:17;11.10;99.90
52889;DHT22;41413;52.770;6.892;2023-03-23T07:37:43;11.10;99.90
52889;DHT22;41413;52.770;6.892;2023-03-23T07:40:09;11.10;99.90
52889;DHT22;41413;52.770;6.892;2023-03-23T07:42:52;11.00;99.90
52889;DHT22;41413;52.770;6.892;2023-03-23T07:45:17;11.10;99.90
52889;DHT22;41413;52.770;6.892;2023-03-23T07:47:43;11.00;99.90
52889;DHT22;41413;52.770;6.892;2023-03-23T07:50:09;11.00;99.90
52889;DHT22;41413;52.770;6.892;2023-03-23T07:52:37;11.20;99.90
52889;DHT22;41413;52.770;6.892;2023-03-23T07:55:03;11.20;99.90
52889;DHT22;41413;52.770;6.892;2023-03-23T07:57:30;11.20;99.90
52889;DHT22;41413;52.770;6.892;2023-03-23T07:59:56;11.30;99.90
52889;DHT22;41413;52.770;6.892;2023-03-23T08:02:24;11.30;99.90
52889;DHT22;41413;52.770;6.892;2023-03-23T08:04:50;11.40;99.90
52889;DHT22;41413;52.770;6.892;2023-03-23T08:07:17;11.40;99.90
52889;DHT22;41413;52.770;6.892;2023-03-23T08:09:48;11.50;99.90
52889;DHT22;41413;52.770;6.892;2023-03-23T08:12:13;11.60;99.90
52889;DHT22;41413;52.770;6.892;2023-03-23T08:14:39;11.60;99.90
52889;DHT22;41413;52.770;6.892;2023-03-23T08:17:07;11.60;99.90
52889;DHT22;41413;52.770;6.892;2023-03-23T08:19:34;11.70;99.90
52889;DHT22;41413;52.770;6.892;2023-03-23T08:22:05;11.70;99.90
52889;DHT22;41413;52.770;6.892;2023-03-23T08:24:31;11.80;99.90
52889;DHT22;41413;52.770;6.892;2023-03-23T08:26:59;11.80;99.90
52889;DHT22;41413;52.770;6.892;2023-03-23T08:29:24;11.90;99.90
52889;DHT22;41413;52.770;6.892;2023-03-23T08:31:50;11.90;99.90
52889;DHT22;41413;52.770;6.892;2023-03-23T08:34:16;11.90;99.90
52889;DHT22;41413;52.770;6.892;2023-03-23T08:36:41;11.90;99.90
52889;DHT22;41413;52.770;6.892;2023-03-23T08:39:10;11.80;99.90
52889;DHT22;41413;52.770;6.892;2023-03-23T08:41:36;11.70;99.90
52889;DHT22;41413;52.770;6.892;2023-03-23T08:44:01;11.80;99.90
52889;DHT22;41413;52.770;6.892;2023-03-23T08:46:28;11.70;99.90
52889;DHT22;41413;52.770;6.892;2023-03-23T08:48:54;11.70;99.90
52889;DHT22;41413;52.770;6.892;2023-03-23T08:51:20;11.70;99.90
52889;DHT22;41413;52.770;6.892;2023-03-23T08:53:46;11.70;99.90
52889;DHT22;41413;52.770;6.892;2023-03-23T08:56:11;11.70;99.90
52889;DHT22;41413;52.770;6.892;2023-03-23T08:58:40;11.70;99.90
52889;DHT22;41413;52.770;6.892;2023-03-23T09:01:07;11.80;99.90
52889;DHT22;41413;52.770;6.892;2023-03-23T09:03:34;11.70;99.90
52889;DHT22;41413;52.770;6.892;2023-03-23T09:06:05;11.70;99.90
52889;DHT22;41413;52.770;6.892;2023-03-23T09:08:31;11.70;99.90
52889;DHT22;41413;52.770;6.892;2023-03-23T09:11:04;11.70;99.90
52889;DHT22;41413;52.770;6.892;2023-03-23T09:13:30;11.70;99.90
52889;DHT22;41413;52.770;6.892;2023-03-23T09:15:56;11.80;99.90
52889;DHT22;41413;52.770;6.892;2023-03-23T09:18:23;11.90;99.90
52889;DHT22;41413;52.770;6.892;2023-03-23T09:20:53;11.90;99.90
52889;DHT22;41413;52.770;6.892;2023-03-23T09:23:19;11.90;99.90
52889;DHT22;41413;52.770;6.892;2023-03-23T09:25:46;11.90;99.90
52889;DHT22;41413;52.770;6.892;2023-03-23T09:28:12;11.80;99.90
52889;DHT22;41413;52.770;6.892;2023-03-23T09:30:39;11.80;99.90
52889;DHT22;41413;52.770;6.892;2023-03-23T09:33:06;11.80;99.90
52889;DHT22;41413;52.770;6.892;2023-03-23T09:35:34;11.80;99.90
52889;DHT22;41413;52.770;6.892;2023-03-23T09:38:01;11.80;99.90
52889;DHT22;41413;52.770;6.892;2023-03-23T09:40:32;11.80;99.90
52889;DHT22;41413;52.770;6.892;2023-03-23T09:48:26;11.80;99.90
52889;DHT22;41413;52.770;6.892;2023-03-23T09:51:12;11.90;99.90
52889;DHT22;41413;52.770;6.892;2023-03-23T09:53:42;12.20;99.90
52889;DHT22;41413;52.770;6.892;2023-03-23T09:56:12;12.70;99.90
52889;DHT22;41413;52.770;6.892;2023-03-23T09:58:59;13.00;99.90
52889;DHT22;41413;52.770;6.892;2023-03-23T10:01:31;13.00;99.90
52889;DHT22;41413;52.770;6.892;2023-03-23T10:04:17;12.70;99.90
52889;DHT22;41413;52.770;6.892;2023-03-23T10:06:47;12.50;99.90
52889;DHT22;41413;52.770;6.892;2023-03-23T10:09:16;12.50;99.90
52889;DHT22;41413;52.770;6.892;2023-03-23T10:12:00;12.70;99.90
52889;DHT22;41413;52.770;6.892;2023-03-23T10:14:36;13.20;99.90
52889;DHT22;41413;52.770;6.892;2023-03-23T10:17:23;14.00;99.90
52889;DHT22;41413;52.770;6.892;2023-03-23T10:19:59;14.70;99.90
52889;DHT22;41413;52.770;6.892;2023-03-23T10:22:32;15.10;99.90
52889;DHT22;41413;52.770;6.892;2023-03-23T10:28:01;15.30;99.90
52889;DHT22;41413;52.770;6.892;2023-03-23T10:30:43;15.70;99.90
52889;DHT22;41413;52.770;6.892;2023-03-23T10:38:49;14.40;99.90
52889;DHT22;41413;52.770;6.892;2023-03-23T10:41:18;14.40;99.90
52889;DHT22;41413;52.770;6.892;2023-03-23T10:43:45;14.20;99.90
52889;DHT22;41413;52.770;6.892;2023-03-23T10:46:31;14.50;99.90
52889;DHT22;41413;52.770;6.892;2023-03-23T10:49:01;15.00;99.90
52889;DHT22;41413;52.770;6.892;2023-03-23T10:51:33;15.30;99.90
52889;DHT22;41413;52.770;6.892;2023-03-23T10:54:02;14.70;99.90
52889;DHT22;41413;52.770;6.892;2023-03-23T10:56:42;14.70;99.90
52889;DHT22;41413;52.770;6.892;2023-03-23T10:59:13;14.80;99.90
52889;DHT22;41413;52.770;6.892;2023-03-23T11:01:43;14.80;99.90
52889;DHT22;41413;52.770;6.892;2023-03-23T11:04:14;14.70;99.90
52889;DHT22;41413;52.770;6.892;2023-03-23T11:06:48;14.60;99.90
52889;DHT22;41413;52.770;6.892;2023-03-23T11:09:20;14.60;99.90
52889;DHT22;41413;52.770;6.892;2023-03-23T11:11:54;14.80;99.90
52889;DHT22;41413;52.770;6.892;2023-03-23T11:14:29;15.40;99.90
52889;DHT22;41413;52.770;6.892;2023-03-23T11:16:59;16.30;99.90
52889;DHT22;41413;52.770;6.892;2023-03-23T11:19:33;16.50;99.90
52889;DHT22;41413;52.770;6.892;2023-03-23T11:22:06;16.10;99.90
52889;DHT22;41413;52.770;6.892;2023-03-23T11:24:40;16.10;99.90
52889;DHT22;41413;52.770;6.892;2023-03-23T11:27:07;16.00;99.90
52889;DHT22;41413;52.770;6.892;2023-03-23T11:29:35;16.30;99.90
52889;DHT22;41413;52.770;6.892;2023-03-23T11:32:02;16.80;99.90
52889;DHT22;41413;52.770;6.892;2023-03-23T11:34:33;16.40;99.90
52889;DHT22;41413;52.770;6.892;2023-03-23T11:37:32;16.50;99.90
52889;DHT22;41413;52.770;6.892;2023-03-23T11:40:00;16.10;99.90
52889;DHT22;41413;52.770;6.892;2023-03-23T11:45:18;15.90;99.90
52889;DHT22;41413;52.770;6.892;2023-03-23T11:50:34;16.00;99.90
52889;DHT22;41413;52.770;6.892;2023-03-23T11:58:18;15.30;99.90
52889;DHT22;41413;52.770;6.892;2023-03-23T12:01:16;15.00;99.90
52889;DHT22;41413;52.770;6.892;2023-03-23T12:12:44;15.00;99.90
52889;DHT22;41413;52.770;6.892;2023-03-23T12:15:21;15.20;99.90
52889;DHT22;41413;52.770;6.892;2023-03-23T12:21:11;15.30;99.90
52889;DHT22;41413;52.770;6.892;2023-03-23T12:23:24;15.60;99.90
52889;DHT22;41413;52.770;6.892;2023-03-23T12:28:54;15.80;99.90
52889;DHT22;41413;52.770;6.892;2023-03-23T12:31:33;15.90;99.90
52889;DHT22;41413;52.770;6.892;2023-03-23T12:39:50;16.10;99.90
52889;DHT22;41413;52.770;6.892;2023-03-23T12:44:53;15.90;99.90
52889;DHT22;41413;52.770;6.892;2023-03-23T12:50:31;16.00;99.90
52889;DHT22;41413;52.770;6.892;2023-03-23T12:53:21;16.10;99.90
52889;DHT22;41413;52.770;6.892;2023-03-23T12:56:04;15.80;99.90
52889;DHT22;41413;52.770;6.892;2023-03-23T12:58:36;16.00;99.90
52889;DHT22;41413;52.770;6.892;2023-03-23T13:01:22;16.10;99.90
52889;DHT22;41413;52.770;6.892;2023-03-23T13:04:12;16.10;99.90
52889;DHT22;41413;52.770;6.892;2023-03-23T13:06:40;16.00;99.90
52889;DHT22;41413;52.770;6.892;2023-03-23T13:11:56;16.00;99.90
52889;DHT22;41413;52.770;6.892;2023-03-23T13:17:35;16.10;99.90
52889;DHT22;41413;52.770;6.892;2023-03-23T13:22:56;15.70;99.90
52889;DHT22;41413;52.770;6.892;2023-03-23T13:28:20;15.90;99.90
52889;DHT22;41413;52.770;6.892;2023-03-23T13:31:21;16.20;99.90
52889;DHT22;41413;52.770;6.892;2023-03-23T13:33:51;16.30;99.90
52889;DHT22;41413;52.770;6.892;2023-03-23T13:36:28;16.00;99.90
52889;DHT22;41413;52.770;6.892;2023-03-23T13:38:56;15.90;99.90
52889;DHT22;41413;52.770;6.892;2023-03-23T13:41:23;15.60;99.90
52889;DHT22;41413;52.770;6.892;2023-03-23T13:43:48;15.60;99.90
52889;DHT22;41413;52.770;6.892;2023-03-23T13:48:49;15.40;99.90
52889;DHT22;41413;52.770;6.892;2023-03-23T13:56:57;15.00;99.90
52889;DHT22;41413;52.770;6.892;2023-03-23T14:01:53;14.60;99.90
52889;DHT22;41413;52.770;6.892;2023-03-23T14:04:20;14.50;99.90
52889;DHT22;41413;52.770;6.892;2023-03-23T14:06:48;14.50;99.90
52889;DHT22;41413;52.770;6.892;2023-03-23T14:09:23;14.70;99.90
52889;DHT22;41413;52.770;6.892;2023-03-23T14:11:56;14.80;99.90
52889;DHT22;41413;52.770;6.892;2023-03-23T14:14:33;14.80;99.90
52889;DHT22;41413;52.770;6.892;2023-03-23T14:17:15;15.00;99.90
52889;DHT22;41413;52.770;6.892;2023-03-23T14:19:44;14.80;99.90
52889;DHT22;41413;52.770;6.892;2023-03-23T14:24:50;15.00;99.90
52889;DHT22;41413;52.770;6.892;2023-03-23T14:27:21;15.00;99.90
52889;DHT22;41413;52.770;6.892;2023-03-23T14:30:01;15.20;99.90
52889;DHT22;41413;52.770;6.892;2023-03-23T14:32:29;15.30;99.90
52889;DHT22;41413;52.770;6.892;2023-03-23T14:34:58;15.50;99.90
52889;DHT22;41413;52.770;6.892;2023-03-23T14:37:24;15.60;99.90
52889;DHT22;41413;52.770;6.892;2023-03-23T14:39:54;15.50;99.90
52889;DHT22;41413;52.770;6.892;2023-03-23T14:42:27;15.50;99.90
52889;DHT22;41413;52.770;6.892;2023-03-23T14:44:54;15.40;99.90
52889;DHT22;41413;52.770;6.892;2023-03-23T14:47:24;15.30;99.90
52889;DHT22;41413;52.770;6.892;2023-03-23T14:49:55;15.20;99.90
52889;DHT22;41413;52.770;6.892;2023-03-23T14:52:24;15.20;99.90
52889;DHT22;41413;52.770;6.892;2023-03-23T14:54:50;15.30;99.90
52889;DHT22;41413;52.770;6.892;2023-03-23T14:57:19;15.30;99.90
52889;DHT22;41413;52.770;6.892;2023-03-23T14:59:47;15.30;99.90
52889;DHT22;41413;52.770;6.892;2023-03-23T15:02:18;15.20;99.90
52889;DHT22;41413;52.770;6.892;2023-03-23T15:04:48;15.00;99.90
52889;DHT22;41413;52.770;6.892;2023-03-23T15:07:15;14.60;99.90
52889;DHT22;41413;52.770;6.892;2023-03-23T15:09:44;14.30;99.90
52889;DHT22;41413;52.770;6.892;2023-03-23T15:12:37;13.80;99.90
52889;DHT22;41413;52.770;6.892;2023-03-23T15:15:35;13.60;99.90
52889;DHT22;41413;52.770;6.892;2023-03-23T15:18:01;13.50;99.90
52889;DHT22;41413;52.770;6.892;2023-03-23T15:20:29;13.50;99.90
52889;DHT22;41413;52.770;6.892;2023-03-23T15:22:57;13.60;99.90
52889;DHT22;41413;52.770;6.892;2023-03-23T15:25:31;13.70;99.90
52889;DHT22;41413;52.770;6.892;2023-03-23T15:28:09;13.60;99.90
52889;DHT22;41413;52.770;6.892;2023-03-23T15:30:55;13.50;99.90
52889;DHT22;41413;52.770;6.892;2023-03-23T15:33:23;13.40;99.90
52889;DHT22;41413;52.770;6.892;2023-03-23T15:35:54;13.40;99.90
52889;DHT22;41413;52.770;6.892;2023-03-23T15:38:26;13.40;99.90
52889;DHT22;41413;52.770;6.892;2023-03-23T15:40:53;13.50;99.90
52889;DHT22;41413;52.770;6.892;2023-03-23T15:43:22;13.50;99.90
52889;DHT22;41413;52.770;6.892;2023-03-23T15:46:01;13.60;99.90
52889;DHT22;41413;52.770;6.892;2023-03-23T15:48:51;13.60;99.90
52889;DHT22;41413;52.770;6.892;2023-03-23T15:51:20;13.50;99.90
52889;DHT22;41413;52.770;6.892;2023-03-23T15:53:47;13.50;99.90
52889;DHT22;41413;52.770;6.892;2023-03-23T15:56:13;13.40;99.90
52889;DHT22;41413;52.770;6.892;2023-03-23T15:58:40;13.40;99.90
52889;DHT22;41413;52.770;6.892;2023-03-23T16:01:18;13.50;99.90
52889;DHT22;41413;52.770;6.892;2023-03-23T16:03:53;13.50;99.90
52889;DHT22;41413;52.770;6.892;2023-03-23T16:06:22;13.50;99.90
52889;DHT22;41413;52.770;6.892;2023-03-23T16:08:52;13.50;99.90
52889;DHT22;41413;52.770;6.892;2023-03-23T16:11:21;13.60;99.90
52889;DHT22;41413;52.770;6.892;2023-03-23T16:13:48;13.60;99.90
52889;DHT22;41413;52.770;6.892;2023-03-23T16:16:18;13.50;99.90
52889;DHT22;41413;52.770;6.892;2023-03-23T16:18:46;13.60;99.90
52889;DHT22;41413;52.770;6.892;2023-03-23T16:21:13;13.30;99.90
52889;DHT22;41413;52.770;6.892;2023-03-23T16:23:40;13.10;99.90
52889;DHT22;41413;52.770;6.892;2023-03-23T16:26:09;13.10;99.90
52889;DHT22;41413;52.770;6.892;2023-03-23T16:28:36;13.00;99.90
52889;DHT22;41413;52.770;6.892;2023-03-23T16:31:03;13.00;99.90
52889;DHT22;41413;52.770;6.892;2023-03-23T16:33:30;12.90;99.90
52889;DHT22;41413;52.770;6.892;2023-03-23T16:35:57;12.80;99.90
52889;DHT22;41413;52.770;6.892;2023-03-23T16:38:24;12.70;99.90
52889;DHT22;41413;52.770;6.892;2023-03-23T16:40:51;12.70;99.90
52889;DHT22;41413;52.770;6.892;2023-03-23T16:43:18;12.60;99.90
52889;DHT22;41413;52.770;6.892;2023-03-23T16:45:45;12.50;99.90
52889;DHT22;41413;52.770;6.892;2023-03-23T16:48:15;12.50;99.90
52889;DHT22;41413;52.770;6.892;2023-03-23T16:50:43;12.50;99.90
52889;DHT22;41413;52.770;6.892;2023-03-23T16:53:10;12.50;99.90
52889;DHT22;41413;52.770;6.892;2023-03-23T16:55:37;12.50;99.90
52889;DHT22;41413;52.770;6.892;2023-03-23T16:58:05;12.30;99.90
52889;DHT22;41413;52.770;6.892;2023-03-23T17:00:43;12.30;99.90
52889;DHT22;41413;52.770;6.892;2023-03-23T17:03:11;12.30;99.90
52889;DHT22;41413;52.770;6.892;2023-03-23T17:05:39;12.30;99.90
52889;DHT22;41413;52.770;6.892;2023-03-23T17:08:06;12.20;99.90
52889;DHT22;41413;52.770;6.892;2023-03-23T17:10:33;12.20;99.90
52889;DHT22;41413;52.770;6.892;2023-03-23T17:12:59;12.20;99.90
52889;DHT22;41413;52.770;6.892;2023-03-23T17:15:27;12.20;99.90
52889;DHT22;41413;52.770;6.892;2023-03-23T17:17:54;12.10;99.90